WXM80 ListenWXM80 Stop

You find our weather info also at:

UK Metoffice

WeatherCloud

Weather Underground

Northeastern Weather Network

AWEKAS

Citizen Weather Observer Program (CWOP)

HAMweather, WeatherForYou, PWS Weather


Weather Underground History page Text

Daily Summary for June 23, 2017 Units:  English    Metric   Both
« Previous Day
Next Day »
Daily Weekly Monthly Yearly Custom
  High: Low: Average:
Temperature: 85.8 °F 74.2 °F 78.7 °F
Dew Point: 76.1 °F 70.0 °F 72.8 °F
Humidity: 90 % 69 % 82 %
Wind Speed: 8.3 mph 0.0 mph 1.6 mph
Wind Gust: 19.6 mph - -
Wind:- - SSW
Pressure: 29.86 in 29.57 in -
Precipitation: 0.00 in    
Historical Graphs
 
 
Tabular Data for June 23, 2017
Time Temperature Dew Point Pressure Wind Wind Speed Wind Gust Humidity Rainfall Rate (Hourly)
00:00 74.2 °F 70.1 °F 29.86 in SW 1.2 mph 4.6 mph 87 % 0.00 in
00:05 74.2 °F 70.1 °F 29.85 in SSW 0.8 mph 2.3 mph 87 % 0.00 in
00:10 74.3 °F 70.2 °F 29.85 in SSW 2.9 mph 4.6 mph 87 % 0.00 in
00:15 74.4 °F 70.3 °F 29.85 in SSE 1.9 mph 3.5 mph 87 % 0.00 in
00:20 74.4 °F 70.3 °F 29.85 in SW 1.7 mph 3.5 mph 87 % 0.00 in
00:25 74.5 °F 70.4 °F 29.85 in WSW 0.9 mph 3.5 mph 87 % 0.00 in
00:30 74.5 °F 70.0 °F 29.85 in WSW 1.1 mph 2.3 mph 86 % 0.00 in
00:35 74.6 °F 70.1 °F 29.85 in SW 0.9 mph 3.5 mph 86 % 0.00 in
00:40 74.6 °F 70.1 °F 29.84 in SW 0.9 mph 2.3 mph 86 % 0.00 in
00:45 74.7 °F 70.2 °F 29.85 in SW 0.4 mph 2.3 mph 86 % 0.00 in
00:50 74.7 °F 70.2 °F 29.84 in Calm   3.5 mph 86 % 0.00 in
00:55 74.8 °F 70.3 °F 29.84 in WSW 0.7 mph 3.5 mph 86 % 0.00 in
01:00 74.8 °F 70.3 °F 29.84 in WSW 0.9 mph 3.5 mph 86 % 0.00 in
01:05 74.8 °F 70.3 °F 29.83 in WSW 1.0 mph 2.3 mph 86 % 0.00 in
01:10 74.9 °F 70.4 °F 29.84 in WSW 0.6 mph 3.5 mph 86 % 0.00 in
01:15 75.0 °F 70.5 °F 29.84 in SW 1.5 mph 3.5 mph 86 % 0.00 in
01:21 75.0 °F 70.5 °F 29.83 in SW 2.0 mph 4.0 mph 86 % 0.00 in
01:26 75.1 °F 70.6 °F 29.83 in Calm   5.0 mph 86 % 0.00 in
01:31 75.1 °F 70.6 °F 29.83 in SSW 1.0 mph 3.0 mph 86 % 0.00 in
01:36 75.2 °F 70.7 °F 29.83 in Calm   3.0 mph 86 % 0.00 in
01:41 75.2 °F 70.7 °F 29.82 in SW 1.0 mph 5.0 mph 86 % 0.00 in
01:46 75.3 °F 70.8 °F 29.82 in SSW 1.0 mph 3.5 mph 86 % 0.00 in
01:51 75.3 °F 70.8 °F 29.82 in SW 2.0 mph 5.0 mph 86 % 0.00 in
01:56 75.3 °F 70.8 °F 29.82 in SW 1.0 mph 6.0 mph 86 % 0.00 in
02:01 75.3 °F 70.8 °F 29.82 in NW 0.9 mph 3.5 mph 86 % 0.00 in
02:06 75.4 °F 70.9 °F 29.82 in West 1.7 mph 3.5 mph 86 % 0.00 in
02:11 75.4 °F 70.9 °F 29.81 in West 2.3 mph 3.5 mph 86 % 0.00 in
02:16 75.5 °F 71.0 °F 29.81 in West 0.2 mph 3.5 mph 86 % 0.00 in
02:21 75.6 °F 71.1 °F 29.81 in WSW 3.0 mph 3.5 mph 86 % 0.00 in
02:26 75.6 °F 71.1 °F 29.81 in SW 1.6 mph 3.5 mph 86 % 0.00 in
02:31 75.6 °F 71.1 °F 29.80 in SW 1.0 mph 3.5 mph 86 % 0.00 in
02:36 75.7 °F 71.2 °F 29.80 in SW 0.8 mph 3.5 mph 86 % 0.00 in
02:41 75.7 °F 71.2 °F 29.80 in SSW 1.3 mph 2.3 mph 86 % 0.00 in
02:46 75.7 °F 71.2 °F 29.80 in SSW 1.1 mph 2.3 mph 86 % 0.00 in
02:51 75.7 °F 71.2 °F 29.80 in SW 1.7 mph 3.5 mph 86 % 0.00 in
02:56 75.8 °F 71.3 °F 29.79 in SW 1.3 mph 5.0 mph 86 % 0.00 in
03:01 75.8 °F 71.3 °F 29.79 in WSW 1.6 mph 3.5 mph 86 % 0.00 in
03:06 75.8 °F 71.3 °F 29.79 in SW 0.7 mph 2.3 mph 86 % 0.00 in
03:11 75.8 °F 71.3 °F 29.79 in SW 2.5 mph 3.5 mph 86 % 0.00 in
03:16 75.9 °F 71.1 °F 29.78 in SW 0.8 mph 3.5 mph 85 % 0.00 in
03:21 75.9 °F 71.1 °F 29.79 in SSW 2.0 mph 6.0 mph 85 % 0.00 in
03:26 75.9 °F 71.1 °F 29.79 in SSW 2.4 mph 3.5 mph 85 % 0.00 in
03:31 75.9 °F 71.1 °F 29.79 in WSW 2.5 mph 5.8 mph 85 % 0.00 in
03:36 75.9 °F 71.1 °F 29.78 in WSW 2.0 mph 3.5 mph 85 % 0.00 in
03:41 76.0 °F 71.2 °F 29.78 in SSW 2.4 mph 5.0 mph 85 % 0.00 in
03:46 76.0 °F 71.2 °F 29.78 in SSW 1.2 mph 3.5 mph 85 % 0.00 in
03:51 76.0 °F 71.2 °F 29.78 in SW 1.3 mph 3.5 mph 85 % 0.00 in
03:57 76.0 °F 71.2 °F 29.78 in SW 0.5 mph 2.3 mph 85 % 0.00 in
04:02 75.9 °F 71.1 °F 29.78 in WSW 0.3 mph 2.3 mph 85 % 0.00 in
04:07 75.9 °F 71.1 °F 29.78 in SW 0.8 mph 3.5 mph 85 % 0.00 in
04:12 75.8 °F 71.0 °F 29.78 in SW 1.2 mph 1.2 mph 85 % 0.00 in
04:17 75.8 °F 71.3 °F 29.78 in SW 1.8 mph 3.0 mph 86 % 0.00 in
04:22 75.7 °F 71.2 °F 29.78 in SW 1.5 mph 3.5 mph 86 % 0.00 in
04:27 75.7 °F 71.2 °F 29.78 in SW 1.0 mph 2.3 mph 86 % 0.00 in
04:32 75.6 °F 71.1 °F 29.78 in SSW 0.9 mph 2.3 mph 86 % 0.00 in
04:37 75.5 °F 71.0 °F 29.78 in SSW 0.7 mph 2.3 mph 86 % 0.00 in
04:42 75.5 °F 71.0 °F 29.78 in SSW 0.6 mph 2.3 mph 86 % 0.00 in
04:47 75.4 °F 70.9 °F 29.77 in SSW 0.1 mph 1.2 mph 86 % 0.00 in
04:52 75.3 °F 70.8 °F 29.77 in WSW 0.1 mph 1.2 mph 86 % 0.00 in
04:57 75.3 °F 71.2 °F 29.78 in SW 0.9 mph 2.3 mph 87 % 0.00 in
05:02 75.2 °F 71.1 °F 29.77 in SW 1.2 mph 3.5 mph 87 % 0.00 in
05:07 75.1 °F 71.0 °F 29.78 in South 1.2 mph 3.5 mph 87 % 0.00 in
05:12 75.1 °F 71.0 °F 29.78 in South 0.6 mph 2.3 mph 87 % 0.00 in
05:17 75.0 °F 71.2 °F 29.78 in South 0.3 mph 3.5 mph 88 % 0.00 in
05:22 74.9 °F 71.1 °F 29.78 in South 0.1 mph 1.2 mph 88 % 0.00 in
05:27 74.9 °F 71.1 °F 29.78 in SSE 0.4 mph 1.2 mph 88 % 0.00 in
05:32 74.8 °F 71.0 °F 29.78 in SSE 0.6 mph 1.2 mph 88 % 0.00 in
05:37 74.8 °F 71.0 °F 29.78 in SSE 0.3 mph 2.3 mph 88 % 0.00 in
05:42 74.7 °F 70.9 °F 29.78 in SSE 1.9 mph 3.5 mph 88 % 0.00 in
05:47 74.7 °F 70.9 °F 29.78 in South 1.7 mph 3.5 mph 88 % 0.00 in
05:58 74.6 °F 71.1 °F 29.79 in West 2.1 mph 4.6 mph 89 % 0.00 in
06:03 74.6 °F 71.1 °F 29.79 in SW 1.0 mph 3.5 mph 89 % 0.00 in
06:08 74.6 °F 71.1 °F 29.78 in WSW 1.8 mph 3.5 mph 89 % 0.00 in
06:13 74.6 °F 71.1 °F 29.78 in SW 2.3 mph 3.0 mph 89 % 0.00 in
06:18 74.6 °F 71.1 °F 29.79 in WSW 0.3 mph 1.2 mph 89 % 0.00 in
06:23 74.7 °F 71.2 °F 29.78 in WSW 0.7 mph 3.5 mph 89 % 0.00 in
06:28 74.8 °F 71.3 °F 29.78 in SSW 0.4 mph 2.3 mph 89 % 0.00 in
06:33 74.9 °F 71.8 °F 29.78 in SSW 0.3 mph 1.2 mph 90 % 0.00 in
06:38 75.0 °F 71.9 °F 29.79 in SW 2.2 mph 3.5 mph 90 % 0.00 in
06:43 75.3 °F 72.2 °F 29.79 in SW 0.8 mph 2.3 mph 90 % 0.00 in
06:48 75.5 °F 72.4 °F 29.79 in SW 0.8 mph 3.5 mph 90 % 0.00 in
06:53 75.8 °F 72.3 °F 29.79 in WSW 1.2 mph 3.5 mph 89 % 0.00 in
06:58 76.0 °F 72.5 °F 29.79 in South 0.5 mph 2.3 mph 89 % 0.00 in
07:03 76.2 °F 72.4 °F 29.79 in SW 0.8 mph 2.3 mph 88 % 0.00 in
07:08 76.3 °F 72.5 °F 29.79 in WSW 0.1 mph 1.0 mph 88 % 0.00 in
07:13 76.4 °F 72.6 °F 29.79 in SW 3.4 mph 6.9 mph 88 % 0.00 in
07:18 76.6 °F 72.4 °F 29.78 in WSW 0.2 mph 2.3 mph 87 % 0.00 in
07:23 76.6 °F 72.4 °F 29.78 in West 0.5 mph 4.0 mph 87 % 0.00 in
07:28 76.7 °F 72.5 °F 29.78 in Calm   2.3 mph 87 % 0.00 in
07:33 76.8 °F 72.6 °F 29.78 in West 0.5 mph 3.5 mph 87 % 0.00 in
07:38 76.9 °F 72.7 °F 29.78 in SW 1.6 mph 3.5 mph 87 % 0.00 in
07:43 77.0 °F 72.8 °F 29.78 in South 0.6 mph 2.3 mph 87 % 0.00 in
07:48 77.1 °F 72.9 °F 29.78 in West 1.2 mph 3.5 mph 87 % 0.00 in
07:53 77.3 °F 73.1 °F 29.78 in Calm   1.2 mph 87 % 0.00 in
07:59 77.5 °F 73.3 °F 29.78 in WSW 0.7 mph 3.5 mph 87 % 0.00 in
08:09 77.9 °F 73.0 °F 29.77 in WSW 0.3 mph 3.5 mph 85 % 0.00 in
08:14 78.1 °F 73.2 °F 29.78 in Calm   2.3 mph 85 % 0.00 in
08:19 78.4 °F 73.5 °F 29.77 in WSW 0.6 mph 3.5 mph 85 % 0.00 in
08:24 78.7 °F 73.8 °F 29.77 in SSW 2.1 mph 3.5 mph 85 % 0.00 in
08:29 79.0 °F 73.7 °F 29.77 in West 0.8 mph 2.3 mph 84 % 0.00 in
08:34 79.3 °F 74.0 °F 29.77 in West 1.1 mph 3.5 mph 84 % 0.00 in
08:39 79.7 °F 73.7 °F 29.77 in East 0.2 mph 2.3 mph 82 % 0.00 in
08:44 80.1 °F 74.1 °F 29.77 in WSW 1.5 mph 3.5 mph 82 % 0.00 in
08:49 80.4 °F 74.4 °F 29.77 in WSW 0.8 mph 2.3 mph 82 % 0.00 in
08:54 80.7 °F 74.7 °F 29.76 in SSE 0.7 mph 2.3 mph 82 % 0.00 in
08:59 81.1 °F 74.7 °F 29.76 in Calm   1.2 mph 81 % 0.00 in
09:04 81.3 °F 74.9 °F 29.76 in ENE 0.5 mph 1.2 mph 81 % 0.00 in
09:09 81.6 °F 74.8 °F 29.76 in SW 0.9 mph 3.5 mph 80 % 0.00 in
09:14 81.8 °F 75.0 °F 29.76 in SE 1.0 mph 3.5 mph 80 % 0.00 in
09:19 82.0 °F 75.2 °F 29.76 in SSE 0.7 mph 1.2 mph 80 % 0.00 in
09:24 82.1 °F 75.3 °F 29.75 in SW 1.1 mph 3.5 mph 80 % 0.00 in
09:29 82.1 °F 74.9 °F 29.75 in SW 0.4 mph 2.3 mph 79 % 0.00 in
09:34 82.1 °F 74.9 °F 29.75 in South 0.7 mph 3.5 mph 79 % 0.00 in
09:39 82.1 °F 74.9 °F 29.75 in Calm   1.0 mph 79 % 0.00 in
09:44 82.0 °F 74.5 °F 29.75 in NW 0.1 mph 2.3 mph 78 % 0.00 in
09:49 82.0 °F 75.2 °F 29.75 in West 0.5 mph 1.2 mph 80 % 0.00 in
09:54 81.9 °F 75.1 °F 29.74 in East 0.2 mph 1.0 mph 80 % 0.00 in
09:59 82.0 °F 74.8 °F 29.74 in South 1.3 mph 3.5 mph 79 % 0.00 in
10:04 82.0 °F 74.8 °F 29.74 in South 0.1 mph 2.3 mph 79 % 0.00 in
10:09 82.0 °F 74.8 °F 29.73 in West 1.5 mph 2.0 mph 79 % 0.00 in
10:14 82.0 °F 75.2 °F 29.73 in SSW 1.7 mph 3.0 mph 80 % 0.00 in
10:20 82.0 °F 74.5 °F 29.74 in SSE 0.2 mph 2.3 mph 78 % 0.00 in
10:25 82.0 °F 74.8 °F 29.74 in SE 1.3 mph 3.5 mph 79 % 0.00 in
10:30 82.1 °F 74.9 °F 29.74 in West 0.3 mph 2.3 mph 79 % 0.00 in
10:35 82.2 °F 74.7 °F 29.73 in SSE 0.5 mph 4.6 mph 78 % 0.00 in
10:40 82.4 °F 74.8 °F 29.73 in South 0.2 mph 2.3 mph 78 % 0.00 in
10:45 82.5 °F 74.9 °F 29.73 in SW 0.2 mph 1.2 mph 78 % 0.00 in
10:50 82.6 °F 75.0 °F 29.73 in SSE 0.7 mph 3.5 mph 78 % 0.00 in
10:55 82.7 °F 75.1 °F 29.72 in SSE 2.1 mph 9.2 mph 78 % 0.00 in
11:00 82.6 °F 74.3 °F 29.72 in South 3.8 mph 6.0 mph 76 % 0.00 in
11:05 82.3 °F 74.7 °F 29.73 in SW 2.4 mph 4.6 mph 78 % 0.00 in
11:10 82.3 °F 75.1 °F 29.73 in SSW 2.5 mph 3.5 mph 79 % 0.00 in
11:15 81.9 °F 74.4 °F 29.73 in SSE 0.7 mph 3.5 mph 78 % 0.00 in
11:20 81.6 °F 74.5 °F 29.72 in SSW 2.3 mph 3.5 mph 79 % 0.00 in
11:25 81.4 °F 74.3 °F 29.72 in SSE 1.9 mph 4.6 mph 79 % 0.00 in
11:30 81.2 °F 74.4 °F 29.72 in WSW 0.8 mph 2.3 mph 80 % 0.00 in
11:35 81.0 °F 74.2 °F 29.72 in SSW 2.5 mph 4.0 mph 80 % 0.00 in
11:40 80.9 °F 74.5 °F 29.71 in SSE 2.2 mph 3.5 mph 81 % 0.00 in
11:45 80.9 °F 74.5 °F 29.71 in South 2.9 mph 9.2 mph 81 % 0.00 in
11:50 80.9 °F 74.5 °F 29.71 in South 1.0 mph 3.5 mph 81 % 0.00 in
11:55 81.0 °F 75.0 °F 29.71 in SSW 3.0 mph 8.1 mph 82 % 0.00 in
12:00 81.3 °F 74.9 °F 29.71 in SE 1.8 mph 3.5 mph 81 % 0.00 in
12:05 81.7 °F 75.3 °F 29.71 in SSW 1.4 mph 8.1 mph 81 % 0.00 in
12:11 82.0 °F 75.3 °F 29.71 in South 1.0 mph 6.0 mph 80 % 0.00 in
12:16 82.4 °F 75.6 °F 29.71 in South 1.0 mph 8.0 mph 80 % 0.00 in
12:21 82.8 °F 75.6 °F 29.70 in South 3.0 mph 9.0 mph 79 % 0.00 in
12:26 83.1 °F 75.9 °F 29.70 in SSW 1.0 mph 9.0 mph 79 % 0.00 in
12:31 83.5 °F 75.9 °F 29.70 in South 1.2 mph 10.4 mph 78 % 0.00 in
12:36 83.7 °F 75.3 °F 29.69 in SSW 2.0 mph 7.0 mph 76 % 0.00 in
12:41 84.0 °F 75.6 °F 29.69 in SW 2.0 mph 10.0 mph 76 % 0.00 in
12:46 84.4 °F 75.6 °F 29.69 in SSW 1.5 mph 4.6 mph 75 % 0.00 in
12:51 84.5 °F 75.7 °F 29.68 in WSW 1.1 mph 9.0 mph 75 % 0.00 in
12:56 84.7 °F 75.1 °F 29.68 in WSW 3.4 mph 6.9 mph 73 % 0.00 in
12:58 84.8 °F 75.6 °F 29.68 in SSE 0.6 mph 3.5 mph 74 % 0.00 in
13:03 85.1 °F 75.5 °F 29.68 in South 4.0 mph 8.1 mph 73 % 0.00 in
13:08 85.2 °F 75.1 °F 29.68 in ESE 1.4 mph 6.9 mph 72 % 0.00 in
13:13 85.2 °F 75.1 °F 29.68 in SSW 1.9 mph 5.8 mph 72 % 0.00 in
13:18 85.4 °F 75.3 °F 29.67 in South 4.5 mph 6.0 mph 72 % 0.00 in
13:23 85.4 °F 74.9 °F 29.67 in South 3.0 mph 4.0 mph 71 % 0.00 in
13:29 85.5 °F 75.4 °F 29.67 in SW 5.4 mph 5.8 mph 72 % 0.00 in
13:34 85.6 °F 75.5 °F 29.66 in SSW 2.5 mph 7.0 mph 72 % 0.00 in
13:39 85.8 °F 75.3 °F 29.66 in SSW 2.6 mph 6.0 mph 71 % 0.00 in
13:44 85.8 °F 76.1 °F 29.66 in SE 1.6 mph 5.8 mph 73 % 0.00 in
13:49 85.6 °F 74.3 °F 29.65 in SW 2.3 mph 4.6 mph 69 % 0.00 in
13:54 85.4 °F 74.5 °F 29.65 in SSE 1.6 mph 5.0 mph 70 % 0.00 in
13:59 85.0 °F 74.1 °F 29.65 in SSW 1.7 mph 3.5 mph 70 % 0.00 in
14:04 84.7 °F 73.8 °F 29.65 in WSW 2.0 mph 19.6 mph 70 % 0.00 in
14:09 84.3 °F 73.9 °F 29.65 in SSW 4.2 mph 10.4 mph 71 % 0.00 in
14:14 83.8 °F 73.8 °F 29.65 in SSW 1.6 mph 4.6 mph 72 % 0.00 in
14:19 83.5 °F 74.3 °F 29.65 in South 4.9 mph 10.0 mph 74 % 0.00 in
14:24 83.3 °F 73.7 °F 29.65 in SSW 3.8 mph 5.8 mph 73 % 0.00 in
14:29 82.9 °F 73.4 °F 29.65 in SW 4.6 mph 7.0 mph 73 % 0.00 in
14:34 82.7 °F 73.6 °F 29.65 in South 2.7 mph 5.8 mph 74 % 0.00 in
14:39 82.6 °F 73.5 °F 29.65 in SSW 2.3 mph 3.5 mph 74 % 0.00 in
14:44 82.5 °F 73.4 °F 29.64 in SSW 2.2 mph 5.8 mph 74 % 0.00 in
14:49 82.5 °F 73.4 °F 29.64 in WSW 4.3 mph 6.9 mph 74 % 0.00 in
14:54 82.5 °F 73.4 °F 29.64 in West 2.8 mph 9.2 mph 74 % 0.00 in
14:59 82.2 °F 73.1 °F 29.64 in SW 8.3 mph 11.5 mph 74 % 0.00 in
15:04 81.9 °F 73.2 °F 29.64 in SSW 3.3 mph 6.9 mph 75 % 0.00 in
15:10 81.7 °F 73.0 °F 29.64 in SSW 1.1 mph 10.4 mph 75 % 0.00 in
15:15 81.5 °F 73.2 °F 29.63 in WSW 2.2 mph 6.0 mph 76 % 0.00 in
15:20 81.4 °F 73.5 °F 29.63 in WSW 2.2 mph 4.0 mph 77 % 0.00 in
15:25 81.4 °F 73.5 °F 29.63 in SSE 0.5 mph 3.0 mph 77 % 0.00 in
15:30 81.4 °F 73.1 °F 29.64 in SW 4.1 mph 6.9 mph 76 % 0.00 in
15:35 81.2 °F 72.9 °F 29.63 in South 2.2 mph 5.8 mph 76 % 0.00 in
15:40 81.3 °F 73.4 °F 29.63 in SSW 3.4 mph 6.9 mph 77 % 0.00 in
15:45 81.4 °F 73.5 °F 29.63 in South 6.2 mph 12.7 mph 77 % 0.00 in
15:50 81.7 °F 73.4 °F 29.63 in SE 1.7 mph 5.8 mph 76 % 0.00 in
15:55 81.8 °F 73.1 °F 29.63 in SSW 2.1 mph 5.0 mph 75 % 0.00 in
16:00 81.7 °F 73.4 °F 29.63 in South 2.0 mph 3.5 mph 76 % 0.00 in
16:05 81.5 °F 73.2 °F 29.63 in SSW 3.6 mph 6.9 mph 76 % 0.00 in
16:10 81.5 °F 73.6 °F 29.62 in SW 2.1 mph 4.6 mph 77 % 0.00 in
16:15 81.6 °F 73.3 °F 29.62 in South 3.6 mph 8.1 mph 76 % 0.00 in
16:20 81.7 °F 73.8 °F 29.62 in SW 3.0 mph 6.0 mph 77 % 0.00 in
16:25 81.7 °F 73.4 °F 29.62 in North 4.2 mph 6.9 mph 76 % 0.00 in
16:30 81.7 °F 73.8 °F 29.62 in SW 1.7 mph 4.6 mph 77 % 0.00 in
16:35 81.7 °F 73.8 °F 29.62 in South 1.0 mph 4.0 mph 77 % 0.00 in
16:40 81.8 °F 73.9 °F 29.62 in SW 1.6 mph 4.6 mph 77 % 0.00 in
16:45 81.9 °F 74.4 °F 29.62 in SW 3.3 mph 4.6 mph 78 % 0.00 in
16:50 82.0 °F 73.7 °F 29.62 in SSE 3.6 mph 5.8 mph 76 % 0.00 in
16:55 81.8 °F 73.5 °F 29.62 in WSW 2.0 mph 5.8 mph 76 % 0.00 in
17:00 81.7 °F 73.4 °F 29.62 in SE 1.6 mph 4.6 mph 76 % 0.00 in
17:05 81.6 °F 73.7 °F 29.62 in SE 1.3 mph 10.4 mph 77 % 0.00 in
17:10 81.2 °F 73.3 °F 29.62 in SSW 3.2 mph 3.5 mph 77 % 0.00 in
17:15 81.1 °F 73.6 °F 29.62 in SSW 2.9 mph 3.5 mph 78 % 0.00 in
17:20 80.9 °F 73.0 °F 29.61 in SSW 1.8 mph 9.2 mph 77 % 0.00 in
17:26 80.7 °F 72.8 °F 29.61 in SSE 2.2 mph 3.5 mph 77 % 0.00 in
17:30 80.5 °F 73.0 °F 29.61 in West 1.2 mph 3.5 mph 78 % 0.00 in
17:36 80.4 °F 72.9 °F 29.61 in SSW 1.0 mph 7.0 mph 78 % 0.00 in
17:41 80.3 °F 72.8 °F 29.61 in South 5.0 mph 12.0 mph 78 % 0.00 in
17:46 80.1 °F 73.0 °F 29.62 in SE 2.9 mph 8.1 mph 79 % 0.00 in
17:51 80.1 °F 73.4 °F 29.61 in SSE 2.0 mph 5.0 mph 80 % 0.00 in
17:56 80.0 °F 73.3 °F 29.61 in Calm   5.0 mph 80 % 0.00 in
18:01 80.0 °F 73.3 °F 29.61 in ESE 0.5 mph 2.3 mph 80 % 0.00 in
18:06 79.9 °F 72.8 °F 29.61 in ESE 0.3 mph 2.3 mph 79 % 0.00 in
18:11 79.8 °F 72.7 °F 29.61 in SSE 0.8 mph 4.6 mph 79 % 0.00 in
18:16 79.6 °F 72.9 °F 29.61 in SSW 2.6 mph 3.5 mph 80 % 0.00 in
18:21 79.5 °F 72.8 °F 29.61 in SSE 0.6 mph 2.3 mph 80 % 0.00 in
18:26 79.4 °F 72.7 °F 29.60 in South 1.5 mph 3.0 mph 80 % 0.00 in
18:31 79.3 °F 73.0 °F 29.60 in SSE 0.9 mph 3.5 mph 81 % 0.00 in
18:36 79.3 °F 73.0 °F 29.60 in SSW 1.4 mph 4.6 mph 81 % 0.00 in
18:41 79.3 °F 73.0 °F 29.59 in SSE 0.2 mph 3.5 mph 81 % 0.00 in
18:46 79.3 °F 73.0 °F 29.60 in South 0.9 mph 3.5 mph 81 % 0.00 in
18:51 79.3 °F 73.3 °F 29.60 in NNE 0.3 mph 2.3 mph 82 % 0.00 in
18:55 79.2 °F 73.2 °F 29.59 in SE 0.9 mph 4.0 mph 82 % 0.00 in
19:00 79.1 °F 72.8 °F 29.59 in SE 1.3 mph 3.5 mph 81 % 0.00 in
19:04 79.1 °F 72.8 °F 29.59 in South 1.2 mph 4.6 mph 81 % 0.00 in
19:10 79.0 °F 72.7 °F 29.59 in SSW 1.1 mph 4.6 mph 81 % 0.00 in
19:15 78.9 °F 72.6 °F 29.60 in SW 1.6 mph 9.2 mph 81 % 0.00 in
19:20 78.9 °F 72.6 °F 29.60 in SSE 1.8 mph 8.1 mph 81 % 0.00 in
19:25 78.8 °F 72.8 °F 29.60 in South 1.2 mph 2.3 mph 82 % 0.00 in
19:30 78.8 °F 72.8 °F 29.60 in SSE 0.6 mph 1.2 mph 82 % 0.00 in
19:35 78.8 °F 72.8 °F 29.60 in SSE 0.1 mph 1.2 mph 82 % 0.00 in
19:40 78.7 °F 72.7 °F 29.60 in ENE 1.7 mph 3.5 mph 82 % 0.00 in
19:45 78.6 °F 72.3 °F 29.59 in South 0.6 mph 3.0 mph 81 % 0.00 in
19:50 78.5 °F 72.5 °F 29.60 in SE 1.6 mph 4.0 mph 82 % 0.00 in
19:55 78.4 °F 72.4 °F 29.60 in SSE 1.3 mph 3.5 mph 82 % 0.00 in
20:00 78.3 °F 72.3 °F 29.59 in SE 1.4 mph 3.5 mph 82 % 0.00 in
20:05 78.2 °F 72.3 °F 29.59 in South 0.7 mph 3.5 mph 82 % 0.00 in
20:10 78.1 °F 72.2 °F 29.59 in SW 1.7 mph 3.5 mph 82 % 0.00 in
20:15 78.1 °F 72.2 °F 29.59 in SSW 1.5 mph 3.5 mph 82 % 0.00 in
20:20 78.0 °F 72.1 °F 29.59 in SSW 2.3 mph 5.8 mph 82 % 0.00 in
20:25 77.9 °F 72.0 °F 29.60 in South 1.3 mph 6.9 mph 82 % 0.00 in
20:30 77.7 °F 71.8 °F 29.59 in SSW 1.2 mph 3.5 mph 82 % 0.00 in
20:35 77.5 °F 71.9 °F 29.59 in SW 0.3 mph 3.5 mph 83 % 0.00 in
20:40 77.3 °F 71.7 °F 29.59 in South 2.1 mph 5.8 mph 83 % 0.00 in
20:45 77.1 °F 71.9 °F 29.59 in SSW 1.2 mph 3.5 mph 84 % 0.00 in
20:50 76.9 °F 71.7 °F 29.59 in WSW 1.3 mph 4.0 mph 84 % 0.00 in
20:55 76.7 °F 71.8 °F 29.59 in SW 2.1 mph 3.5 mph 85 % 0.00 in
21:01 76.6 °F 72.1 °F 29.59 in SSW 1.2 mph 2.0 mph 86 % 0.00 in
21:06 76.4 °F 71.9 °F 29.59 in SSW 1.0 mph 4.0 mph 86 % 0.00 in
21:11 76.2 °F 71.7 °F 29.59 in SSW 2.0 mph 4.0 mph 86 % 0.00 in
21:16 76.0 °F 71.8 °F 29.59 in SSW 1.0 mph 4.0 mph 87 % 0.00 in
21:21 75.8 °F 71.7 °F 29.59 in SSW 1.0 mph 5.0 mph 87 % 0.00 in
21:26 75.7 °F 71.9 °F 29.59 in South 1.0 mph 3.0 mph 88 % 0.00 in
21:31 75.5 °F 71.7 °F 29.58 in South 2.0 mph 5.0 mph 88 % 0.00 in
21:36 75.4 °F 71.6 °F 29.58 in South 1.0 mph 5.0 mph 88 % 0.00 in
21:41 75.3 °F 71.5 °F 29.58 in South 1.0 mph 4.0 mph 88 % 0.00 in
21:45 75.2 °F 71.4 °F 29.58 in SW 1.5 mph 7.0 mph 88 % 0.00 in
21:51 75.2 °F 71.7 °F 29.59 in SSW 2.0 mph 6.0 mph 89 % 0.00 in
21:56 75.2 °F 71.7 °F 29.59 in SSW 2.0 mph 7.0 mph 89 % 0.00 in
22:01 75.3 °F 71.8 °F 29.59 in SSW 5.0 mph 7.0 mph 89 % 0.00 in
22:06 75.4 °F 71.9 °F 29.59 in South 3.1 mph 5.8 mph 89 % 0.00 in
22:11 75.5 °F 72.0 °F 29.59 in SW 2.0 mph 5.8 mph 89 % 0.00 in
22:16 75.6 °F 72.1 °F 29.59 in SW 1.5 mph 3.5 mph 89 % 0.00 in
22:21 75.7 °F 72.2 °F 29.59 in SW 2.9 mph 10.4 mph 89 % 0.00 in
22:26 75.8 °F 72.0 °F 29.59 in SW 1.5 mph 4.6 mph 88 % 0.00 in
22:31 75.9 °F 72.1 °F 29.60 in SSW 3.7 mph 9.2 mph 88 % 0.00 in
22:36 76.0 °F 72.2 °F 29.59 in SSE 3.7 mph 6.9 mph 88 % 0.00 in
22:41 76.2 °F 72.4 °F 29.59 in SSW 4.1 mph 7.0 mph 88 % 0.00 in
22:46 76.3 °F 72.5 °F 29.59 in SSW 1.7 mph 5.8 mph 88 % 0.00 in
22:51 76.5 °F 72.7 °F 29.58 in SSW 1.2 mph 6.9 mph 88 % 0.00 in
22:56 76.7 °F 72.9 °F 29.58 in WSW 1.7 mph 4.0 mph 88 % 0.00 in
23:01 76.8 °F 72.6 °F 29.58 in SSW 4.8 mph 8.1 mph 87 % 0.00 in
23:06 77.0 °F 72.8 °F 29.57 in SW 1.8 mph 3.5 mph 87 % 0.00 in
23:11 77.1 °F 72.9 °F 29.57 in SW 2.4 mph 6.9 mph 87 % 0.00 in
23:16 77.4 °F 73.2 °F 29.57 in SSW 5.8 mph 13.8 mph 87 % 0.00 in
23:21 77.5 °F 73.3 °F 29.57 in South 2.5 mph 6.9 mph 87 % 0.00 in
23:26 77.6 °F 73.1 °F 29.57 in WSW 2.5 mph 8.1 mph 86 % 0.00 in
23:32 77.7 °F 73.2 °F 29.57 in SSW 3.1 mph 3.1 mph 86 % 0.00 in
23:37 77.8 °F 73.3 °F 29.57 in WSW 1.9 mph 6.0 mph 86 % 0.00 in
23:42 77.8 °F 73.3 °F 29.57 in SSW 1.3 mph 9.2 mph 86 % 0.00 in
23:47 77.8 °F 72.9 °F 29.57 in SSW 3.5 mph 4.6 mph 85 % 0.00 in
23:52 77.8 °F 72.9 °F 29.57 in SSW 1.4 mph 3.5 mph 85 % 0.00 in
23:57 77.8 °F 72.9 °F 29.57 in SSW 0.8 mph 10.4 mph 85 % 0.00 in
Crab Meadow Weather
Compliments of Weather Underground - 3 mb

Script developed by  Jim McMurry - jmcmurry@mwt.net Adapted for the template by  Wim van der Kuil - Leuven-Template.eu

Astronomy: It takes 16 million horsepower to break loose from the Earth's gravitational pull.